Time;durP1;ratioP1;P1;durP2;ratioP2;P2;SDS_P1;SDS_P2;PMS_P1;PMS_P2;Temp;Humidity;BMP_temperature;BMP_pressure;BME280_temperature;BME280_humidity;BME280_pressure;Samples;Min_cycle;Max_cycle;Signal;HPM_P1;HPM_P2
2023/11/25 09:29:14;;;;;;;21.30;10.40;;;;;;;5.79;100.00;99285.12;104023;1285;601145;-78
2023/11/25 09:31:42;;;;;;;20.00;11.00;;;;;;;5.86;100.00;99286.40;105047;1270;59593;-79
2023/11/25 09:34:10;;;;;;;20.10;11.00;;;;;;;5.92;100.00;99276.35;104970;1264;59331;-81
2023/11/25 09:36:37;;;;;;;18.00;11.30;;;;;;;5.93;100.00;99282.50;105871;1255;71190;-80
2023/11/25 09:39:09;;;;;;;22.60;11.20;;;;;;;5.94;100.00;99277.95;105943;1254;62555;-80
2023/11/25 09:41:37;;;;;;;20.20;13.90;;;;;;;5.96;100.00;99271.73;105780;1254;72691;-80
2023/11/25 09:44:08;;;;;;;21.50;13.30;;;;;;;5.98;100.00;99262.42;105889;1251;60882;-79
2023/11/25 09:46:36;;;;;;;29.10;13.00;;;;;;;5.99;100.00;99258.55;105936;1257;59731;-79
2023/11/25 09:49:04;;;;;;;22.40;14.00;;;;;;;6.03;100.00;99261.10;106057;1251;72044;-78
2023/11/25 09:51:35;;;;;;;20.00;11.60;;;;;;;6.08;100.00;99259.23;105855;1251;62568;-79
2023/11/25 09:54:13;;;;;;;17.70;11.20;;;;;;;6.08;100.00;99256.14;105978;1255;72616;-77
2023/11/25 09:56:41;;;;;;;20.70;11.50;;;;;;;6.04;100.00;99253.80;105957;1257;59777;-79
2023/11/25 09:59:09;;;;;;;18.20;9.50;;;;;;;6.03;100.00;99248.98;105883;1256;59605;-80
2023/11/25 10:01:37;;;;;;;14.40;9.30;;;;;;;6.10;100.00;99243.33;105619;1258;73038;-80
2023/11/25 10:04:06;;;;;;;20.00;9.50;;;;;;;6.18;100.00;99238.10;106221;1256;63886;-78
2023/11/25 10:06:34;;;;;;;15.10;7.90;;;;;;;6.21;100.00;99233.92;105976;1251;72735;-79
2023/11/25 10:09:02;;;;;;;14.70;6.90;;;;;;;6.25;100.00;99239.25;105963;1256;60214;-79
2023/11/25 10:11:32;;;;;;;15.30;8.50;;;;;;;6.29;100.00;99241.75;105936;1256;59656;-79
2023/11/25 10:14:02;;;;;;;11.60;7.80;;;;;;;6.31;100.00;99240.74;105887;1256;72364;-80
2023/11/25 10:16:30;;;;;;;10.70;7.20;;;;;;;6.31;100.00;99241.06;106338;1254;63052;-77
2023/11/25 10:18:58;;;;;;;14.70;7.40;;;;;;;6.30;100.00;99241.55;106391;1256;72368;-79
2023/11/25 10:21:26;;;;;;;11.60;6.90;;;;;;;6.24;100.00;99241.35;105891;1251;59879;-78
2023/11/25 10:23:54;;;;;;;11.40;7.50;;;;;;;6.21;100.00;99239.81;106075;1257;59560;-79
2023/11/25 10:26:21;;;;;;;14.40;8.10;;;;;;;6.15;100.00;99239.88;106062;1253;73059;-80
2023/11/25 10:28:49;;;;;;;15.70;8.20;;;;;;;6.06;100.00;99239.77;105995;1251;64126;-78
2023/11/25 10:31:17;;;;;;;16.90;8.10;;;;;;;6.03;100.00;99251.55;105976;1251;70570;-79
2023/11/25 10:33:48;;;;;;;14.00;7.50;;;;;;;6.04;100.00;99258.77;105874;1250;60885;-77
2023/11/25 10:36:16;;;;;;;13.50;9.10;;;;;;;6.02;100.00;99259.59;105956;1256;59627;-78
2023/11/25 10:38:44;;;;;;;15.50;8.80;;;;;;;6.01;100.00;99256.86;106057;1251;73189;-79
2023/11/25 10:41:12;;;;;;;20.80;11.10;;;;;;;5.99;100.00;99252.66;106014;1257;63823;-79
2023/11/25 10:43:43;;;;;;;13.40;9.40;;;;;;;5.92;100.00;99253.29;105960;1257;71436;-78
2023/11/25 10:46:11;;;;;;;16.60;10.40;;;;;;;5.83;100.00;99258.00;105989;1256;59785;-81
2023/11/25 10:48:42;;;;;;;17.30;9.40;;;;;;;5.77;100.00;99255.75;105978;1256;59525;-81
2023/11/25 10:51:10;;;;;;;17.00;9.60;;;;;;;5.75;100.00;99251.38;105893;1256;72913;-80
2023/11/25 10:53:39;;;;;;;14.20;9.40;;;;;;;5.75;100.00;99245.14;105950;1257;63751;-79
2023/11/25 10:56:07;;;;;;;19.20;10.10;;;;;;;5.71;100.00;99241.19;105948;1257;71356;-80
2023/11/25 10:58:36;;;;;;;21.10;10.20;;;;;;;5.69;100.00;99246.34;105901;1251;59854;-79
2023/11/25 11:01:04;;;;;;;19.60;10.50;;;;;;;5.73;100.00;99246.31;105772;1257;59632;-80
2023/11/25 11:04:07;;;;;;;20.90;10.50;;;;;;;5.72;100.00;99242.70;105873;1257;72814;-79
2023/11/25 11:06:45;;;;;;;18.90;11.70;;;;;;;5.72;100.00;99241.67;106172;1254;62275;-79
2023/11/25 11:09:19;;;;;;;18.10;9.30;;;;;;;5.68;100.00;99240.52;105938;1257;71613;-80
2023/11/25 11:11:53;;;;;;;20.60;10.70;;;;;;;5.60;100.00;99232.36;105810;1251;59723;-82
2023/11/25 11:14:22;;;;;;;;;;;;;;;5.53;100.00;99227.77;106010;1255;59710;-78
2023/11/25 11:17:15;;;;;;;23.30;11.00;;;;;;;5.49;100.00;99226.80;106005;1251;73777;-79
2023/11/25 11:19:43;;;;;;;18.40;10.00;;;;;;;5.45;100.00;99223.59;106041;1256;64599;-78
2023/11/25 11:22:11;;;;;;;22.90;12.20;;;;;;;5.42;100.00;99217.02;105907;1255;72877;-81
2023/11/25 11:25:22;;;;;;;18.80;11.00;;;;;;;5.41;100.00;99210.11;105925;1251;59838;-78
2023/11/25 11:27:55;;;;;;;23.80;12.70;;;;;;;5.41;100.00;99214.80;105766;1251;60022;-79
2023/11/25 11:30:32;;;;;;;21.90;13.40;;;;;;;5.38;100.00;99223.65;105957;1256;72956;-80
2023/11/25 11:33:01;;;;;;;21.70;13.30;;;;;;;5.31;100.00;99219.39;105883;1256;62752;-80
2023/11/25 11:35:37;;;;;;;27.20;14.10;;;;;;;5.29;100.00;99218.83;105821;1257;71531;-78
2023/11/25 11:38:23;;;;;;;28.70;14.90;;;;;;;5.28;100.00;99211.27;105886;1256;60321;-78
2023/11/25 11:41:07;;;;;;;25.40;15.00;;;;;;;5.25;100.00;99215.11;105859;1250;60382;-77
2023/11/25 11:43:37;;;;;;;19.90;14.10;;;;;;;5.22;100.00;99210.94;105891;1257;71572;-79
2023/11/25 11:46:05;;;;;;;23.20;14.20;;;;;;;5.23;100.00;99211.92;105935;1258;62793;-81
2023/11/25 11:48:33;;;;;;;25.80;13.90;;;;;;;5.24;100.00;99213.77;105982;1251;71320;-80
2023/11/25 11:51:01;;;;;;;24.30;13.10;;;;;;;5.23;100.00;99211.05;105816;1251;61942;-76
2023/11/25 11:53:28;;;;;;;23.80;12.90;;;;;;;5.19;100.00;99206.75;106320;1256;61179;-80
2023/11/25 11:55:57;;;;;;;20.30;13.60;;;;;;;5.18;100.00;99203.56;105990;1251;71751;-82
2023/11/25 11:58:26;;;;;;;19.90;13.10;;;;;;;5.17;100.00;99199.12;106066;1251;62634;-81
2023/11/25 12:00:55;;;;;;;18.80;12.80;;;;;;;5.13;100.00;99197.44;106075;1251;71355;-80
2023/11/25 12:03:23;;;;;;;21.90;12.10;;;;;;;5.11;100.00;99197.21;105990;1256;59666;-80
2023/11/25 12:05:51;;;;;;;22.90;12.90;;;;;;;5.10;100.00;99194.88;105966;1255;60217;-81
2023/11/25 12:08:20;;;;;;;29.50;14.00;;;;;;;5.05;100.00;99193.75;105994;1251;71767;-80
2023/11/25 12:10:48;;;;;;;24.30;12.40;;;;;;;5.03;100.00;99194.59;105999;1254;63492;-81
2023/11/25 12:13:32;;;;;;;20.50;12.50;;;;;;;5.01;100.00;99195.41;105928;1257;72430;-80
2023/11/25 12:16:03;;;;;;;21.90;13.10;;;;;;;4.98;100.00;99190.88;105944;1257;60399;-79
2023/11/25 12:18:40;;;;;;;24.60;14.30;;;;;;;4.99;100.00;99197.25;105909;1251;62511;-80
2023/11/25 12:21:08;;;;;;;24.70;13.20;;;;;;;5.01;100.00;99197.98;105953;1251;73050;-79
2023/11/25 12:23:36;;;;;;;22.00;12.30;;;;;;;5.03;100.00;99203.07;105929;1251;62847;-79
2023/11/25 12:26:22;;;;;;;22.50;13.00;;;;;;;5.04;100.00;99204.75;105974;1251;73366;-81
2023/11/25 12:28:50;;;;;;;24.70;14.30;;;;;;;5.02;100.00;99209.00;105941;1251;60855;-81
2023/11/25 12:31:18;;;;;;;26.00;13.60;;;;;;;5.00;100.00;99219.36;105926;1256;59643;-81
2023/11/25 12:33:46;;;;;;;26.00;13.80;;;;;;;4.96;100.00;99220.61;105946;1255;72142;-80
2023/11/25 12:36:14;;;;;;;26.50;14.30;;;;;;;4.94;100.00;99220.89;106009;1252;63771;-81
2023/11/25 12:38:42;;;;;;;16.50;10.60;;;;;;;4.95;100.00;99221.94;105902;1252;70954;-79
2023/11/25 12:41:12;;;;;;;19.10;12.60;;;;;;;4.92;100.00;99226.95;106208;1254;60906;-79
2023/11/25 12:44:05;;;;;;;21.00;11.60;;;;;;;4.88;100.00;99233.91;106457;1251;59678;-81
2023/11/25 12:46:37;;;;;;;31.40;12.90;;;;;;;4.90;100.00;99243.82;105947;1251;72065;-81
2023/11/25 12:49:21;;;;;;;23.80;11.70;;;;;;;4.92;100.00;99244.23;105979;1257;64245;-79
2023/11/25 12:51:50;;;;;;;20.70;11.00;;;;;;;4.94;100.00;99248.44;106045;1256;72729;-81
2023/11/25 12:54:19;;;;;;;19.80;11.50;;;;;;;4.96;100.00;99244.67;106037;1251;61442;-80
2023/11/25 12:56:52;;;;;;;18.40;11.10;;;;;;;4.98;100.00;99250.98;105874;1255;59637;-79
2023/11/25 12:59:26;;;;;;;20.50;11.10;;;;;;;4.97;100.00;99246.73;106015;1257;72983;-78
2023/11/25 13:02:06;;;;;;;18.30;10.90;;;;;;;4.93;100.00;99248.66;105998;1257;62760;-78
2023/11/25 13:04:49;;;;;;;22.20;11.20;;;;;;;4.89;100.00;99248.08;105997;1257;72417;-80
2023/11/25 13:07:34;;;;;;;19.10;11.00;;;;;;;4.84;100.00;99251.80;106070;1251;59868;-80
2023/11/25 13:10:03;;;;;;;23.60;11.90;;;;;;;4.81;100.00;99254.77;106022;1255;59692;-80
2023/11/25 13:12:33;;;;;;;18.20;11.30;;;;;;;4.81;100.00;99256.33;106062;1251;73249;-81
2023/11/25 13:15:03;;;;;;;19.90;13.20;;;;;;;4.81;100.00;99252.66;105870;1257;62389;-80
2023/11/25 13:17:31;;;;;;;23.50;12.20;;;;;;;4.80;100.00;99247.04;105993;1251;72684;-81
2023/11/25 13:19:59;;;;;;;20.30;13.00;;;;;;;4.80;100.00;99243.89;106131;1255;61103;-79
2023/11/25 13:22:27;;;;;;;25.90;13.80;;;;;;;4.78;100.00;99242.60;105916;1254;59673;-80
2023/11/25 13:24:55;;;;;;;26.50;14.30;;;;;;;4.76;100.00;99237.91;106048;1254;72323;-80
2023/11/25 13:27:23;;;;;;;22.60;13.70;;;;;;;4.73;100.00;99236.17;106062;1251;63695;-80
2023/11/25 13:29:50;;;;;;;23.20;14.20;;;;;;;4.68;100.00;99236.61;106056;1256;72773;-81
2023/11/25 13:32:18;;;;;;;22.50;13.90;;;;;;;4.67;100.00;99235.46;106769;1250;61065;-80
2023/11/25 13:34:46;;;;;;;23.00;13.90;;;;;;;4.64;100.00;99232.35;106007;1251;60025;-80
2023/11/25 13:37:14;;;;;;;28.90;15.70;;;;;;;4.61;100.00;99227.56;105875;1256;72975;-81
2023/11/25 13:39:43;;;;;;;25.50;14.20;;;;;;;4.56;100.00;99221.77;106081;1254;62425;-80
2023/11/25 13:42:14;;;;;;;24.60;14.30;;;;;;;4.52;100.00;99217.82;105888;1251;72491;-81
2023/11/25 13:44:42;;;;;;;21.50;12.40;;;;;;;4.48;100.00;99213.75;105901;1256;62924;-81
2023/11/25 13:47:11;;;;;;;25.50;12.50;;;;;;;4.43;100.00;99212.64;105964;1256;60399;-80
2023/11/25 13:49:38;;;;;;;24.70;12.90;;;;;;;4.39;100.00;99207.67;105954;1257;73807;-81
2023/11/25 13:52:06;;;;;;;19.30;12.10;;;;;;;4.34;100.00;99197.73;106101;1254;63682;-79
2023/11/25 13:54:36;;;;;;;16.90;10.30;;;;;;;4.31;100.00;99193.60;105950;1257;72733;-79
2023/11/25 13:57:05;;;;;;;22.10;11.00;;;;;;;4.29;100.00;99191.26;105860;1256;60536;-77
2023/11/25 13:59:32;;;;;;;16.50;8.50;;;;;;;4.29;100.00;99186.45;105975;1251;60453;-79
2023/11/25 14:02:02;;;;;;;19.70;10.30;;;;;;;4.27;100.00;99182.05;105859;1251;72313;-80
2023/11/25 14:04:32;;;;;;;24.40;11.30;;;;;;;4.25;100.00;99184.43;105934;1251;63595;-80
2023/11/25 14:07:02;;;;;;;19.20;10.30;;;;;;;4.25;100.00;99189.44;105938;1251;71034;-79
2023/11/25 14:09:29;;;;;;;18.70;11.80;;;;;;;4.26;100.00;99187.46;105879;1252;60502;-77
2023/11/25 14:11:59;;;;;;;17.60;9.80;;;;;;;4.26;100.00;99190.45;105889;1257;60430;-79
2023/11/25 14:14:27;;;;;;;21.20;11.50;;;;;;;4.25;100.00;99194.12;105922;1251;72626;-79
2023/11/25 14:16:55;;;;;;;23.40;11.90;;;;;;;4.25;100.00;99194.45;106041;1251;63686;-78
2023/11/25 14:19:26;;;;;;;24.10;12.70;;;;;;;4.26;100.00;99191.13;105894;1251;71598;-79
2023/11/25 14:21:54;;;;;;;20.40;12.20;;;;;;;4.24;100.00;99188.61;106076;1257;60559;-79
2023/11/25 14:24:22;;;;;;;22.50;12.50;;;;;;;4.23;100.00;99190.24;106188;1254;60443;-79
2023/11/25 14:26:50;;;;;;;19.90;12.40;;;;;;;4.21;100.00;99190.21;105909;1257;71863;-78
2023/11/25 14:29:17;;;;;;;25.20;12.10;;;;;;;4.18;100.00;99187.08;106062;1254;63450;-78
2023/11/25 14:31:45;;;;;;;19.50;10.60;;;;;;;4.18;100.00;99197.63;105951;1256;71920;-78
2023/11/25 14:34:14;;;;;;;18.80;9.10;;;;;;;4.17;100.00;99190.40;105921;1251;60552;-80
2023/11/25 14:36:42;;;;;;;17.20;10.60;;;;;;;4.16;100.00;99191.51;105876;1251;60591;-78
2023/11/25 14:39:18;;;;;;;13.90;8.90;;;;;;;4.15;100.00;99193.95;105970;1256;73847;-79
2023/11/25 14:41:47;;;;;;;15.80;9.90;;;;;;;4.16;100.00;99195.84;106015;1251;62435;-81
2023/11/25 14:44:16;;;;;;;18.60;9.50;;;;;;;4.15;100.00;99196.19;105986;1251;72764;-80
2023/11/25 14:46:43;;;;;;;17.60;10.10;;;;;;;4.18;100.00;99194.52;105896;1251;60434;-81
2023/11/25 14:49:14;;;;;;;18.70;10.00;;;;;;;4.19;100.00;99201.21;105847;1256;60498;-80
2023/11/25 14:51:42;;;;;;;14.20;8.60;;;;;;;4.20;100.00;99200.61;105985;1256;72908;-77
2023/11/25 14:54:14;;;;;;;17.40;9.90;;;;;;;4.20;100.00;99203.08;106027;1256;62348;-78
2023/11/25 14:56:43;;;;;;;17.00;9.50;;;;;;;4.14;100.00;99198.33;105976;1251;72667;-80
2023/11/25 14:59:14;;;;;;;16.60;9.90;;;;;;;4.11;100.00;99199.58;105962;1254;60536;-79
2023/11/25 15:01:47;;;;;;;22.70;11.20;;;;;;;4.11;100.00;99205.59;105915;1257;60379;-78
2023/11/25 15:04:15;;;;;;;20.20;10.90;;;;;;;4.12;100.00;99203.85;105868;1251;72200;-78
2023/11/25 15:06:43;;;;;;;21.20;12.90;;;;;;;4.12;100.00;99202.45;106162;1254;63382;-80
2023/11/25 15:09:11;;;;;;;18.60;11.20;;;;;;;4.11;100.00;99198.52;106044;1251;75191;-79
2023/11/25 15:11:44;;;;;;;20.80;11.40;;;;;;;4.09;100.00;99199.13;106138;1251;60772;-79
2023/11/25 15:14:11;;;;;;;20.70;11.80;;;;;;;4.09;100.00;99198.65;106000;1251;60449;-80
2023/11/25 15:16:39;;;;;;;21.80;12.10;;;;;;;4.10;100.00;99192.70;106047;1254;72888;-80
2023/11/25 15:19:07;;;;;;;19.80;12.10;;;;;;;4.09;100.00;99186.21;105981;1254;64462;-80
2023/11/25 15:21:37;;;;;;;23.60;13.70;;;;;;;4.10;100.00;99184.07;105952;1250;71805;-81
2023/11/25 15:24:06;;;;;;;21.40;13.60;;;;;;;4.09;100.00;99182.39;106069;1252;60917;-80
2023/11/25 15:26:41;;;;;;;21.80;13.10;;;;;;;4.09;100.00;99179.77;106056;1257;60351;-79
2023/11/25 15:29:11;;;;;;;22.20;15.30;;;;;;;4.10;100.00;99180.61;105807;1250;73479;-79
2023/11/25 15:31:45;;;;;;;25.80;13.60;;;;;;;4.09;100.00;99179.82;105918;1253;63397;-80
2023/11/25 15:34:14;;;;;;;27.10;14.80;;;;;;;4.06;100.00;99183.06;105962;1251;71361;-78
2023/11/25 15:36:41;;;;;;;29.70;15.20;;;;;;;4.03;100.00;99181.48;106014;1251;61002;-80
2023/11/25 15:39:09;;;;;;;20.70;14.30;;;;;;;4.02;100.00;99181.25;106053;1256;60441;-79
2023/11/25 15:41:36;;;;;;;24.20;15.30;;;;;;;4.02;100.00;99180.02;105868;1251;72715;-80
2023/11/25 15:44:05;;;;;;;23.90;14.70;;;;;;;4.02;100.00;99178.98;105924;1254;63597;-79
2023/11/25 15:46:33;;;;;;;22.80;14.30;;;;;;;4.02;100.00;99177.27;106050;1254;72878;-79
2023/11/25 15:49:01;;;;;;;25.80;15.00;;;;;;;4.03;100.00;99179.46;105894;1256;60388;-80
2023/11/25 15:51:30;;;;;;;22.90;15.30;;;;;;;4.03;100.00;99181.16;106001;1250;60345;-80
2023/11/25 15:53:58;;;;;;;22.90;14.00;;;;;;;4.00;100.00;99180.83;105932;1256;73885;-78
2023/11/25 15:56:25;;;;;;;19.00;11.10;;;;;;;3.92;100.00;99182.45;106082;1251;62252;-78
2023/11/25 15:58:56;;;;;;;16.90;11.60;;;;;;;3.86;100.00;99186.80;106661;1257;71905;-78
2023/11/25 16:01:23;;;;;;;21.40;11.20;;;;;;;3.80;100.00;99188.48;106287;1257;60530;-77
2023/11/25 16:03:53;;;;;;;16.40;10.50;;;;;;;3.74;100.00;99186.41;106068;1256;60428;-78
2023/11/25 16:06:20;;;;;;;18.00;10.00;;;;;;;3.68;100.00;99184.15;106048;1251;72616;-78
2023/11/25 16:08:48;;;;;;;21.30;9.70;;;;;;;3.62;100.00;99185.67;106368;1253;62935;-81
2023/11/25 16:11:16;;;;;;;19.90;9.40;;;;;;;3.57;100.00;99175.61;109720;1250;72712;-79
2023/11/25 16:13:44;;;;;;;17.00;10.20;;;;;;;3.52;100.00;99176.19;109687;1251;59780;-78
2023/11/25 16:16:11;;;;;;;15.40;11.10;;;;;;;3.47;100.00;99178.51;109787;1250;58815;-79
2023/11/25 16:18:39;;;;;;;18.70;10.30;;;;;;;3.45;100.00;99178.30;109791;1251;74010;-78
2023/11/25 16:21:07;;;;;;;17.20;10.90;;;;;;;3.42;100.00;99174.81;109718;1249;63805;-79
2023/11/25 16:23:36;;;;;;;16.60;10.70;;;;;;;3.40;100.00;99177.21;109713;1251;71440;-79
2023/11/25 16:26:09;;;;;;;16.80;11.70;;;;;;;3.39;100.00;99178.78;109866;1250;60867;-80
2023/11/25 16:28:40;;;;;;;20.00;12.00;;;;;;;3.41;100.00;99180.95;109739;1250;59925;-81
2023/11/25 16:31:07;;;;;;;14.50;10.30;;;;;;;3.42;100.00;99178.10;109709;1249;71589;-80
2023/11/25 16:33:41;;;;;;;15.10;10.30;;;;;;;3.42;100.00;99175.02;109818;1249;61412;-80
2023/11/25 16:36:10;;;;;;;19.10;11.50;;;;;;;3.39;100.00;99171.06;109625;1249;72129;-80
2023/11/25 16:38:38;;;;;;;17.20;11.30;;;;;;;3.35;100.00;99167.99;109693;1251;60967;-79
2023/11/25 16:41:07;;;;;;;17.00;11.40;;;;;;;3.29;100.00;99163.23;109744;1250;59742;-80
2023/11/25 16:43:35;;;;;;;16.90;11.80;;;;;;;3.23;100.00;99156.16;109676;1249;72510;-80
2023/11/25 16:46:04;;;;;;;15.40;11.10;;;;;;;3.17;100.00;99150.64;109709;1250;63130;-79
2023/11/25 16:48:39;;;;;;;19.00;11.80;;;;;;;3.12;100.00;99149.17;109751;1249;71577;-80
2023/11/25 16:51:19;;;;;;;19.10;12.10;;;;;;;3.04;100.00;99146.83;109706;1249;60071;-80
2023/11/25 16:53:47;;;;;;;21.50;12.00;;;;;;;3.02;100.00;99147.06;109807;1249;62320;-82
2023/11/25 16:56:15;;;;;;;17.50;12.20;;;;;;;3.03;100.00;99142.54;109678;1250;75845;-79
2023/11/25 16:58:43;;;;;;;16.30;10.50;;;;;;;3.02;100.00;99138.64;109665;1250;62448;-80
2023/11/25 17:01:14;;;;;;;24.90;14.10;;;;;;;2.98;100.00;99133.51;109708;1249;72647;-81
2023/11/25 17:03:41;;;;;;;16.80;11.60;;;;;;;2.90;100.00;99126.64;109778;1250;60863;-78
2023/11/25 17:06:11;;;;;;;17.30;10.40;;;;;;;2.84;100.00;99117.45;109784;1250;58824;-81
2023/11/25 17:08:44;;;;;;;15.20;10.80;;;;;;;2.77;100.00;99111.27;109634;1250;73909;-81
2023/11/25 17:11:12;;;;;;;15.90;10.80;;;;;;;2.68;100.00;99108.48;109694;1250;62427;-80
2023/11/25 17:13:40;;;;;;;13.40;10.00;;;;;;;2.58;100.00;99099.84;109814;1249;70897;-80
2023/11/25 17:16:07;;;;;;;16.30;9.90;;;;;;;2.52;100.00;99093.95;109668;1251;61966;-81
2023/11/25 17:18:35;;;;;;;11.60;9.30;;;;;;;2.50;100.00;99080.40;109725;1249;61966;-79
2023/11/25 17:21:03;;;;;;;12.70;8.90;;;;;;;2.51;100.00;99074.14;109761;1249;74014;-81
2023/11/25 17:23:31;;;;;;;10.40;6.90;;;;;;;2.52;100.00;99066.54;109701;1250;62269;-78
2023/11/25 17:25:59;;;;;;;9.30;7.30;;;;;;;2.49;100.00;99059.43;109660;1250;73045;-81
2023/11/25 17:28:26;;;;;;;11.30;7.50;;;;;;;2.43;100.00;99053.36;109731;1249;60120;-80
2023/11/25 17:30:54;;;;;;;9.40;7.40;;;;;;;2.38;100.00;99043.62;109820;1254;58896;-81
2023/11/25 17:33:23;;;;;;;12.10;8.30;;;;;;;2.33;100.00;99040.44;109709;1250;74047;-81
2023/11/25 17:35:51;;;;;;;14.10;9.50;;;;;;;2.28;100.00;99041.19;109741;1249;61579;-79
2023/11/25 17:38:18;;;;;;;11.80;9.20;;;;;;;2.23;100.00;99042.15;109778;1250;71330;-79
2023/11/25 17:40:47;;;;;;;17.40;10.50;;;;;;;2.17;100.00;99042.82;109714;1250;60834;-78
2023/11/25 17:43:15;;;;;;;13.70;9.30;;;;;;;2.11;100.00;99037.08;109862;1250;60060;-79
2023/11/25 17:45:42;;;;;;;14.20;9.90;;;;;;;2.06;100.00;99039.19;109700;1251;73028;-78
2023/11/25 17:48:10;;;;;;;13.30;8.70;;;;;;;2.00;100.00;99043.84;109831;1249;66491;-78
2023/11/25 17:50:38;;;;;;;11.00;7.30;;;;;;;1.95;100.00;99042.56;109849;1250;73339;-78
2023/11/25 17:53:06;;;;;;;11.40;7.70;;;;;;;1.92;100.00;99042.85;109673;1251;59564;-77
2023/11/25 17:55:41;;;;;;;11.30;7.50;;;;;;;1.87;100.00;99043.09;109702;1250;60477;-79
2023/11/25 17:58:09;;;;;;;10.60;6.80;;;;;;;1.83;100.00;99040.52;109777;1250;74184;-77
2023/11/25 18:00:43;;;;;;;9.60;7.50;;;;;;;1.81;100.00;99038.91;109750;1250;63189;-79
2023/11/25 18:03:14;;;;;;;6.90;5.40;;;;;;;1.73;100.00;99038.09;109677;1250;72842;-80
2023/11/25 18:05:42;;;;;;;6.80;5.30;;;;;;;1.69;100.00;99030.55;109739;1250;60120;-79
2023/11/25 18:08:10;;;;;;;6.70;5.10;;;;;;;1.64;100.00;99020.80;109754;1250;58562;-79
2023/11/25 18:10:40;;;;;;;7.90;6.00;;;;;;;1.57;100.00;99017.16;109729;1250;72571;-79
2023/11/25 18:13:07;;;;;;;9.80;5.30;;;;;;;1.53;100.00;99012.72;109733;1251;63653;-78
2023/11/25 18:15:35;;;;;;;8.70;6.30;;;;;;;1.48;100.00;99008.66;109673;1250;71749;-78
2023/11/25 18:18:03;;;;;;;6.80;4.80;;;;;;;1.43;100.00;98995.83;109669;1249;63147;-80
2023/11/25 18:20:31;;;;;;;8.60;5.80;;;;;;;1.39;100.00;98988.94;109704;1249;62143;-80
2023/11/25 18:22:59;;;;;;;7.20;5.30;;;;;;;1.33;100.00;98981.16;109714;1249;74913;-78
2023/11/25 18:25:27;;;;;;;7.30;5.30;;;;;;;1.31;100.00;98973.50;109760;1249;63953;-78
2023/11/25 18:27:55;;;;;;;7.00;4.80;;;;;;;1.32;100.00;98968.65;109747;1250;71313;-78
2023/11/25 18:30:25;;;;;;;5.00;4.10;;;;;;;1.32;100.00;98957.29;109727;1249;58976;-78
2023/11/25 18:32:55;;;;;;;5.60;4.80;;;;;;;1.30;100.00;98953.07;109836;1250;58789;-77
2023/11/25 18:35:24;;;;;;;7.70;4.70;;;;;;;1.25;100.00;98948.50;109714;1249;73958;-78
2023/11/25 18:37:52;;;;;;;7.00;4.60;;;;;;;1.23;100.00;98949.64;109697;1249;64284;-78
2023/11/25 18:40:21;;;;;;;7.00;5.10;;;;;;;1.20;100.00;98946.49;109678;1249;75000;-79
2023/11/25 18:42:49;;;;;;;8.70;4.60;;;;;;;1.20;100.00;98946.48;109696;1255;60205;-77
2023/11/25 18:45:16;;;;;;;8.50;5.60;;;;;;;1.19;100.00;98945.66;109744;1250;58193;-80
2023/11/25 18:47:44;;;;;;;5.30;3.80;;;;;;;1.20;100.00;98945.12;109733;1250;74250;-78
2023/11/25 18:50:12;;;;;;;5.30;4.70;;;;;;;1.23;100.00;98943.44;109710;1250;65735;-78
2023/11/25 18:52:39;;;;;;;5.80;4.90;;;;;;;1.24;100.00;98946.31;109831;1251;72689;-77
2023/11/25 18:55:07;;;;;;;8.30;5.30;;;;;;;1.26;100.00;98946.07;109709;1251;60940;-77
2023/11/25 18:57:35;;;;;;;5.50;4.50;;;;;;;1.25;100.00;98940.41;109751;1250;58759;-77
2023/11/25 19:00:04;;;;;;;6.80;5.00;;;;;;;1.26;100.00;98943.14;109695;1251;73356;-76
2023/11/25 19:02:32;;;;;;;5.90;4.80;;;;;;;1.24;100.00;98943.02;109724;1250;62343;-79
2023/11/25 19:05:00;;;;;;;6.40;5.10;;;;;;;1.25;100.00;98938.52;109716;1251;71730;-79
2023/11/25 19:07:28;;;;;;;6.80;5.00;;;;;;;1.24;100.00;98931.00;109684;1250;63162;-82
2023/11/25 19:09:56;;;;;;;6.50;4.60;;;;;;;1.26;100.00;98927.46;109767;1250;59978;-82
2023/11/25 19:12:24;;;;;;;5.40;4.80;;;;;;;1.24;100.00;98922.02;109743;1255;73908;-80
2023/11/25 19:14:54;;;;;;;7.50;5.10;;;;;;;1.24;100.00;98918.75;109757;1250;66165;-81
2023/11/25 19:17:22;;;;;;;4.00;3.60;;;;;;;1.26;100.00;98918.33;109772;1250;72690;-79
2023/11/25 19:19:50;;;;;;;4.20;3.80;;;;;;;1.28;100.00;98912.71;109643;1251;62503;-79
2023/11/25 19:22:20;;;;;;;5.70;4.30;;;;;;;1.31;100.00;98903.46;109749;1249;60995;-78
2023/11/25 19:24:48;;;;;;;7.80;4.30;;;;;;;1.33;100.00;98900.95;109688;1250;73828;-80
2023/11/25 19:27:16;;;;;;;4.80;4.10;;;;;;;1.33;100.00;98897.33;109777;1249;62559;-80
2023/11/25 19:29:43;;;;;;;6.00;4.80;;;;;;;1.32;100.00;98896.87;109710;1251;71401;-78
2023/11/25 19:32:14;;;;;;;4.80;3.90;;;;;;;1.29;100.00;98900.80;109698;1250;59089;-78
2023/11/25 19:34:44;;;;;;;5.00;4.10;;;;;;;1.28;100.00;98898.94;109687;1250;60436;-78
2023/11/25 19:37:12;;;;;;;6.10;3.70;;;;;;;1.29;100.00;98898.23;109695;1249;73775;-79
2023/11/25 19:39:41;;;;;;;6.30;4.60;;;;;;;1.27;100.00;98897.80;109712;1251;64035;-78
2023/11/25 19:42:11;;;;;;;5.90;4.40;;;;;;;1.27;100.00;98897.79;109714;1251;72346;-82
2023/11/25 19:44:42;;;;;;;7.00;5.20;;;;;;;1.28;100.00;98895.86;109736;1251;60834;-79
2023/11/25 19:47:09;;;;;;;5.10;3.80;;;;;;;1.28;100.00;98889.49;109731;1249;59136;-80
2023/11/25 19:49:40;;;;;;;5.60;4.30;;;;;;;1.28;100.00;98879.17;109696;1249;72999;-78
2023/11/25 19:52:08;;;;;;;4.40;4.00;;;;;;;1.28;100.00;98876.91;109734;1250;63554;-79
2023/11/25 19:54:36;;;;;;;4.90;4.00;;;;;;;1.29;100.00;98874.11;109814;1250;73599;-79
2023/11/25 19:57:07;;;;;;;5.30;4.20;;;;;;;1.29;100.00;98869.83;109728;1251;60939;-77
2023/11/25 19:59:35;;;;;;;4.30;3.90;;;;;;;1.29;100.00;98870.16;109687;1250;57994;-77
2023/11/25 20:02:03;;;;;;;6.10;4.10;;;;;;;1.30;100.00;98869.61;109732;1255;73821;-77
2023/11/25 20:04:31;;;;;;;4.70;4.20;;;;;;;1.30;100.00;98871.13;109732;1250;63571;-76
2023/11/25 20:06:59;;;;;;;4.30;3.60;;;;;;;1.31;100.00;98869.52;109709;1251;71994;-78
2023/11/25 20:09:27;;;;;;;5.40;4.00;;;;;;;1.32;100.00;98864.98;109663;1251;60025;-77
2023/11/25 20:11:57;;;;;;;4.50;3.70;;;;;;;1.32;100.00;98857.79;109739;1252;58948;-79
2023/11/25 20:14:25;;;;;;;6.10;4.00;;;;;;;1.32;100.00;98857.76;109706;1250;75017;-77
2023/11/25 20:16:53;;;;;;;4.20;3.30;;;;;;;1.32;100.00;98859.34;109773;1251;63798;-80
2023/11/25 20:19:21;;;;;;;3.40;2.80;;;;;;;1.32;100.00;98854.86;109704;1251;72767;-75
2023/11/25 20:21:49;;;;;;;4.30;3.80;;;;;;;1.33;100.00;98850.50;109807;1250;59290;-77
2023/11/25 20:24:16;;;;;;;7.50;4.60;;;;;;;1.32;100.00;98853.30;109728;1250;59063;-78
2023/11/25 20:26:44;;;;;;;5.50;3.20;;;;;;;1.34;100.00;98843.38;109739;1250;73998;-78
2023/11/25 20:29:12;;;;;;;4.20;3.50;;;;;;;1.35;100.00;98836.95;109817;1249;63304;-79
2023/11/25 20:31:40;;;;;;;4.10;2.80;;;;;;;1.37;100.00;98836.02;109688;1250;71748;-77
2023/11/25 20:34:07;;;;;;;3.90;2.30;;;;;;;1.37;100.00;98836.67;109704;1250;59865;-78
2023/11/25 20:36:35;;;;;;;3.70;2.70;;;;;;;1.34;100.00;98831.48;109750;1251;60152;-77
2023/11/25 20:39:05;;;;;;;3.00;2.30;;;;;;;1.34;100.00;98820.48;109702;1249;72533;-80
2023/11/25 20:41:32;;;;;;;3.70;2.00;;;;;;;1.35;100.00;98819.05;109831;1250;62821;-80
2023/11/25 20:44:00;;;;;;;2.20;2.00;;;;;;;1.34;100.00;98818.08;109698;1250;71337;-78
2023/11/25 20:46:27;;;;;;;2.50;2.30;;;;;;;1.32;100.00;98811.12;109663;1251;59688;-78
2023/11/25 20:48:55;;;;;;;2.30;2.10;;;;;;;1.28;100.00;98797.54;109714;1250;58805;-76
2023/11/25 20:51:24;;;;;;;2.60;2.30;;;;;;;1.22;100.00;98791.99;109799;1251;73165;-77
2023/11/25 20:53:52;;;;;;;4.10;2.50;;;;;;;1.20;100.00;98784.88;109759;1250;61729;-78